<?xml version="1.0" encoding="UTF-8" standalone="no" ?>
<gpx xmlns="http://www.topografix.com/GPX/1/1" creator="MapSource 6.11.6" version="1.1" xmlns:xsi="http://www.w3.org/2001/XMLSchema-instance" xsi:schemaLocation="http://www.topografix.com/GPX/1/1 http://www.topografix.com/GPX/1/1/gpx.xsd">

  <metadata>
    <link href="http://www.garmin.com">
      <text>Garmin International</text>
    </link>
    <time>2009-08-25T14:56:31Z</time>
    <bounds maxlat="50.740431" maxlon="6.553057" minlat="50.709688" minlon="6.517461"/>
  </metadata>

  <trk>
    <name>Großer Heideweg</name>
    <extensions>
      <gpxx:TrackExtension xmlns:gpxx="http://www.garmin.com/xmlschemas/GpxExtensions/v3" xmlns:xsi="http://www.w3.org/2001/XMLSchema-instance" xsi:schemaLocation="http://www.garmin.com/xmlschemas/GpxExtensions/v3 http://www.garmin.com/xmlschemas/GpxExtensions/v3/GpxExtensionsv3.xsd">
        <gpxx:DisplayColor>DarkBlue</gpxx:DisplayColor>
      </gpxx:TrackExtension>
    </extensions>
    <trkseg>
      <trkpt lat="50.731312" lon="6.525275">
        <ele>248.640000</ele>
        <time>2009-08-23T08:46:49Z</time>
      </trkpt>
      <trkpt lat="50.731113" lon="6.525341">
        <ele>248.160000</ele>
        <time>2009-08-23T08:47:04Z</time>
      </trkpt>
      <trkpt lat="50.730932" lon="6.525451">
        <ele>247.680000</ele>
        <time>2009-08-23T08:47:18Z</time>
      </trkpt>
      <trkpt lat="50.730732" lon="6.525463">
        <ele>247.200000</ele>
        <time>2009-08-23T08:47:33Z</time>
      </trkpt>
      <trkpt lat="50.730549" lon="6.525376">
        <ele>247.200000</ele>
        <time>2009-08-23T08:47:48Z</time>
      </trkpt>
      <trkpt lat="50.730369" lon="6.525537">
        <ele>246.720000</ele>
        <time>2009-08-23T08:48:02Z</time>
      </trkpt>
      <trkpt lat="50.730343" lon="6.525558">
        <ele>246.720000</ele>
        <time>2009-08-23T08:48:04Z</time>
      </trkpt>
      <trkpt lat="50.730142" lon="6.525716">
        <ele>246.230000</ele>
        <time>2009-08-23T08:48:21Z</time>
      </trkpt>
      <trkpt lat="50.730079" lon="6.525754">
        <ele>246.230000</ele>
        <time>2009-08-23T08:48:27Z</time>
      </trkpt>
      <trkpt lat="50.730060" lon="6.525731">
        <ele>246.230000</ele>
        <time>2009-08-23T08:48:29Z</time>
      </trkpt>
      <trkpt lat="50.730048" lon="6.525744">
        <ele>240.950000</ele>
        <time>2009-08-23T08:53:33Z</time>
      </trkpt>
      <trkpt lat="50.730036" lon="6.525768">
        <ele>240.470000</ele>
        <time>2009-08-23T08:55:10Z</time>
      </trkpt>
      <trkpt lat="50.729902" lon="6.525905">
        <ele>239.990000</ele>
        <time>2009-08-23T08:55:25Z</time>
      </trkpt>
      <trkpt lat="50.729890" lon="6.525909">
        <ele>239.990000</ele>
        <time>2009-08-23T08:55:26Z</time>
      </trkpt>
      <trkpt lat="50.729755" lon="6.526004">
        <ele>239.990000</ele>
        <time>2009-08-23T08:55:42Z</time>
      </trkpt>
      <trkpt lat="50.729715" lon="6.526025">
        <ele>239.990000</ele>
        <time>2009-08-23T08:55:45Z</time>
      </trkpt>
      <trkpt lat="50.729566" lon="6.526039">
        <ele>239.510000</ele>
        <time>2009-08-23T08:55:56Z</time>
      </trkpt>
      <trkpt lat="50.729473" lon="6.526045">
        <ele>239.510000</ele>
        <time>2009-08-23T08:56:03Z</time>
      </trkpt>
      <trkpt lat="50.729312" lon="6.526075">
        <ele>239.020000</ele>
        <time>2009-08-23T08:56:17Z</time>
      </trkpt>
      <trkpt lat="50.729134" lon="6.526122">
        <ele>239.020000</ele>
        <time>2009-08-23T08:56:30Z</time>
      </trkpt>
      <trkpt lat="50.728978" lon="6.526140">
        <ele>239.020000</ele>
        <time>2009-08-23T08:56:41Z</time>
      </trkpt>
      <trkpt lat="50.728883" lon="6.526197">
        <ele>239.020000</ele>
        <time>2009-08-23T08:56:55Z</time>
      </trkpt>
      <trkpt lat="50.728707" lon="6.526287">
        <ele>238.540000</ele>
        <time>2009-08-23T08:57:12Z</time>
      </trkpt>
      <trkpt lat="50.728582" lon="6.526386">
        <ele>239.020000</ele>
        <time>2009-08-23T08:57:28Z</time>
      </trkpt>
      <trkpt lat="50.728498" lon="6.526426">
        <ele>239.020000</ele>
        <time>2009-08-23T08:57:43Z</time>
      </trkpt>
      <trkpt lat="50.728481" lon="6.526437">
        <ele>239.020000</ele>
        <time>2009-08-23T08:57:45Z</time>
      </trkpt>
      <trkpt lat="50.728379" lon="6.526598">
        <ele>239.020000</ele>
        <time>2009-08-23T08:58:00Z</time>
      </trkpt>
      <trkpt lat="50.728317" lon="6.526633">
        <ele>239.020000</ele>
        <time>2009-08-23T08:58:13Z</time>
      </trkpt>
      <trkpt lat="50.728301" lon="6.526663">
        <ele>239.510000</ele>
        <time>2009-08-23T08:58:16Z</time>
      </trkpt>
      <trkpt lat="50.728191" lon="6.526717">
        <ele>239.020000</ele>
        <time>2009-08-23T08:58:25Z</time>
      </trkpt>
      <trkpt lat="50.728111" lon="6.526769">
        <ele>239.020000</ele>
        <time>2009-08-23T08:58:32Z</time>
      </trkpt>
      <trkpt lat="50.728018" lon="6.526940">
        <ele>238.540000</ele>
        <time>2009-08-23T08:58:46Z</time>
      </trkpt>
      <trkpt lat="50.727968" lon="6.526969">
        <ele>239.020000</ele>
        <time>2009-08-23T08:58:50Z</time>
      </trkpt>
      <trkpt lat="50.727818" lon="6.527042">
        <ele>238.540000</ele>
        <time>2009-08-23T08:59:04Z</time>
      </trkpt>
      <trkpt lat="50.727691" lon="6.527080">
        <ele>238.060000</ele>
        <time>2009-08-23T08:59:20Z</time>
      </trkpt>
      <trkpt lat="50.727441" lon="6.527094">
        <ele>238.060000</ele>
        <time>2009-08-23T08:59:40Z</time>
      </trkpt>
      <trkpt lat="50.727329" lon="6.527134">
        <ele>238.060000</ele>
        <time>2009-08-23T08:59:55Z</time>
      </trkpt>
      <trkpt lat="50.727192" lon="6.527191">
        <ele>237.580000</ele>
        <time>2009-08-23T09:00:07Z</time>
      </trkpt>
      <trkpt lat="50.727159" lon="6.527197">
        <ele>237.580000</ele>
        <time>2009-08-23T09:00:22Z</time>
      </trkpt>
      <trkpt lat="50.726966" lon="6.527293">
        <ele>237.100000</ele>
        <time>2009-08-23T09:01:12Z</time>
      </trkpt>
      <trkpt lat="50.726881" lon="6.527363">
        <ele>237.100000</ele>
        <time>2009-08-23T09:01:21Z</time>
      </trkpt>
      <trkpt lat="50.726852" lon="6.527393">
        <ele>237.100000</ele>
        <time>2009-08-23T09:01:25Z</time>
      </trkpt>
      <trkpt lat="50.726780" lon="6.527503">
        <ele>237.100000</ele>
        <time>2009-08-23T09:01:40Z</time>
      </trkpt>
      <trkpt lat="50.726754" lon="6.527560">
        <ele>236.620000</ele>
        <time>2009-08-23T09:01:45Z</time>
      </trkpt>
      <trkpt lat="50.726704" lon="6.527671">
        <ele>236.620000</ele>
        <time>2009-08-23T09:02:01Z</time>
      </trkpt>
      <trkpt lat="50.726620" lon="6.527746">
        <ele>236.620000</ele>
        <time>2009-08-23T09:02:07Z</time>
      </trkpt>
      <trkpt lat="50.726458" lon="6.527921">
        <ele>236.620000</ele>
        <time>2009-08-23T09:02:23Z</time>
      </trkpt>
      <trkpt lat="50.726453" lon="6.527896">
        <ele>235.660000</ele>
        <time>2009-08-23T09:02:36Z</time>
      </trkpt>
      <trkpt lat="50.726416" lon="6.527978">
        <ele>235.660000</ele>
        <time>2009-08-23T09:03:10Z</time>
      </trkpt>
      <trkpt lat="50.726392" lon="6.527991">
        <ele>235.660000</ele>
        <time>2009-08-23T09:03:36Z</time>
      </trkpt>
      <trkpt lat="50.726330" lon="6.527989">
        <ele>235.180000</ele>
        <time>2009-08-23T09:04:00Z</time>
      </trkpt>
      <trkpt lat="50.726264" lon="6.528022">
        <ele>234.700000</ele>
        <time>2009-08-23T09:04:28Z</time>
      </trkpt>
      <trkpt lat="50.726196" lon="6.528051">
        <ele>234.700000</ele>
        <time>2009-08-23T09:04:53Z</time>
      </trkpt>
      <trkpt lat="50.726122" lon="6.528111">
        <ele>234.700000</ele>
        <time>2009-08-23T09:05:27Z</time>
      </trkpt>
      <trkpt lat="50.726092" lon="6.528102">
        <ele>234.220000</ele>
        <time>2009-08-23T09:05:42Z</time>
      </trkpt>
      <trkpt lat="50.726062" lon="6.528127">
        <ele>234.220000</ele>
        <time>2009-08-23T09:06:21Z</time>
      </trkpt>
      <trkpt lat="50.725986" lon="6.528159">
        <ele>234.220000</ele>
        <time>2009-08-23T09:06:40Z</time>
      </trkpt>
      <trkpt lat="50.725843" lon="6.528240">
        <ele>234.220000</ele>
        <time>2009-08-23T09:07:06Z</time>
      </trkpt>
      <trkpt lat="50.725837" lon="6.528218">
        <ele>234.220000</ele>
        <time>2009-08-23T09:07:10Z</time>
      </trkpt>
      <trkpt lat="50.725701" lon="6.528251">
        <ele>234.220000</ele>
        <time>2009-08-23T09:07:22Z</time>
      </trkpt>
      <trkpt lat="50.725683" lon="6.528253">
        <ele>234.220000</ele>
        <time>2009-08-23T09:07:25Z</time>
      </trkpt>
      <trkpt lat="50.725531" lon="6.528427">
        <ele>234.220000</ele>
        <time>2009-08-23T09:07:42Z</time>
      </trkpt>
      <trkpt lat="50.725382" lon="6.528549">
        <ele>235.180000</ele>
        <time>2009-08-23T09:07:58Z</time>
      </trkpt>
      <trkpt lat="50.725235" lon="6.528686">
        <ele>235.660000</ele>
        <time>2009-08-23T09:08:14Z</time>
      </trkpt>
      <trkpt lat="50.725217" lon="6.528692">
        <ele>235.660000</ele>
        <time>2009-08-23T09:08:16Z</time>
      </trkpt>
      <trkpt lat="50.725085" lon="6.528828">
        <ele>236.140000</ele>
        <time>2009-08-23T09:08:31Z</time>
      </trkpt>
      <trkpt lat="50.724941" lon="6.528904">
        <ele>236.140000</ele>
        <time>2009-08-23T09:08:45Z</time>
      </trkpt>
      <trkpt lat="50.724818" lon="6.529020">
        <ele>236.140000</ele>
        <time>2009-08-23T09:08:59Z</time>
      </trkpt>
      <trkpt lat="50.724688" lon="6.529135">
        <ele>236.140000</ele>
        <time>2009-08-23T09:09:13Z</time>
      </trkpt>
      <trkpt lat="50.724638" lon="6.529171">
        <ele>236.140000</ele>
        <time>2009-08-23T09:09:28Z</time>
      </trkpt>
      <trkpt lat="50.724648" lon="6.529258">
        <ele>235.180000</ele>
        <time>2009-08-23T09:10:27Z</time>
      </trkpt>
      <trkpt lat="50.724582" lon="6.529250">
        <ele>235.660000</ele>
        <time>2009-08-23T09:11:38Z</time>
      </trkpt>
      <trkpt lat="50.724406" lon="6.529280">
        <ele>235.660000</ele>
        <time>2009-08-23T09:11:51Z</time>
      </trkpt>
      <trkpt lat="50.724327" lon="6.529299">
        <ele>235.660000</ele>
        <time>2009-08-23T09:11:57Z</time>
      </trkpt>
      <trkpt lat="50.724281" lon="6.529332">
        <ele>235.180000</ele>
        <time>2009-08-23T09:12:10Z</time>
      </trkpt>
      <trkpt lat="50.724123" lon="6.529407">
        <ele>235.660000</ele>
        <time>2009-08-23T09:12:31Z</time>
      </trkpt>
      <trkpt lat="50.724037" lon="6.529446">
        <ele>235.660000</ele>
        <time>2009-08-23T09:12:48Z</time>
      </trkpt>
      <trkpt lat="50.723967" lon="6.529473">
        <ele>235.660000</ele>
        <time>2009-08-23T09:13:08Z</time>
      </trkpt>
      <trkpt lat="50.723796" lon="6.529547">
        <ele>236.140000</ele>
        <time>2009-08-23T09:13:31Z</time>
      </trkpt>
      <trkpt lat="50.723631" lon="6.529624">
        <ele>235.660000</ele>
        <time>2009-08-23T09:13:47Z</time>
      </trkpt>
      <trkpt lat="50.723472" lon="6.529660">
        <ele>235.660000</ele>
        <time>2009-08-23T09:14:01Z</time>
      </trkpt>
      <trkpt lat="50.723360" lon="6.529744">
        <ele>236.140000</ele>
        <time>2009-08-23T09:14:15Z</time>
      </trkpt>
      <trkpt lat="50.723222" lon="6.529767">
        <ele>235.180000</ele>
        <time>2009-08-23T09:14:29Z</time>
      </trkpt>
      <trkpt lat="50.723077" lon="6.529804">
        <ele>235.660000</ele>
        <time>2009-08-23T09:14:43Z</time>
      </trkpt>
      <trkpt lat="50.722939" lon="6.529892">
        <ele>235.660000</ele>
        <time>2009-08-23T09:14:56Z</time>
      </trkpt>
      <trkpt lat="50.722830" lon="6.529930">
        <ele>235.660000</ele>
        <time>2009-08-23T09:15:08Z</time>
      </trkpt>
      <trkpt lat="50.722726" lon="6.530006">
        <ele>235.660000</ele>
        <time>2009-08-23T09:15:20Z</time>
      </trkpt>
      <trkpt lat="50.722560" lon="6.530078">
        <ele>235.660000</ele>
        <time>2009-08-23T09:15:36Z</time>
      </trkpt>
      <trkpt lat="50.722444" lon="6.530099">
        <ele>235.660000</ele>
        <time>2009-08-23T09:15:50Z</time>
      </trkpt>
      <trkpt lat="50.722284" lon="6.530099">
        <ele>235.180000</ele>
        <time>2009-08-23T09:16:04Z</time>
      </trkpt>
      <trkpt lat="50.722127" lon="6.530128">
        <ele>234.220000</ele>
        <time>2009-08-23T09:16:19Z</time>
      </trkpt>
      <trkpt lat="50.721981" lon="6.530171">
        <ele>234.220000</ele>
        <time>2009-08-23T09:16:36Z</time>
      </trkpt>
      <trkpt lat="50.721979" lon="6.530118">
        <ele>234.220000</ele>
        <time>2009-08-23T09:16:51Z</time>
      </trkpt>
      <trkpt lat="50.721967" lon="6.530025">
        <ele>233.740000</ele>
        <time>2009-08-23T09:16:55Z</time>
      </trkpt>
      <trkpt lat="50.721949" lon="6.529831">
        <ele>233.740000</ele>
        <time>2009-08-23T09:17:04Z</time>
      </trkpt>
      <trkpt lat="50.722026" lon="6.529565">
        <ele>233.740000</ele>
        <time>2009-08-23T09:17:20Z</time>
      </trkpt>
      <trkpt lat="50.722019" lon="6.529452">
        <ele>233.740000</ele>
        <time>2009-08-23T09:17:26Z</time>
      </trkpt>
      <trkpt lat="50.721998" lon="6.529387">
        <ele>233.260000</ele>
        <time>2009-08-23T09:17:45Z</time>
      </trkpt>
      <trkpt lat="50.721921" lon="6.529404">
        <ele>232.780000</ele>
        <time>2009-08-23T09:19:23Z</time>
      </trkpt>
      <trkpt lat="50.721887" lon="6.529458">
        <ele>233.260000</ele>
        <time>2009-08-23T09:20:02Z</time>
      </trkpt>
      <trkpt lat="50.721744" lon="6.529501">
        <ele>232.780000</ele>
        <time>2009-08-23T09:20:14Z</time>
      </trkpt>
      <trkpt lat="50.721558" lon="6.529506">
        <ele>233.260000</ele>
        <time>2009-08-23T09:20:29Z</time>
      </trkpt>
      <trkpt lat="50.721453" lon="6.529538">
        <ele>232.780000</ele>
        <time>2009-08-23T09:20:41Z</time>
      </trkpt>
      <trkpt lat="50.721196" lon="6.529670">
        <ele>233.260000</ele>
        <time>2009-08-23T09:21:00Z</time>
      </trkpt>
      <trkpt lat="50.721087" lon="6.529738">
        <ele>233.260000</ele>
        <time>2009-08-23T09:21:10Z</time>
      </trkpt>
      <trkpt lat="50.720941" lon="6.529818">
        <ele>233.260000</ele>
        <time>2009-08-23T09:21:24Z</time>
      </trkpt>
      <trkpt lat="50.720881" lon="6.529815">
        <ele>233.740000</ele>
        <time>2009-08-23T09:21:35Z</time>
      </trkpt>
      <trkpt lat="50.720854" lon="6.529828">
        <ele>232.780000</ele>
        <time>2009-08-23T09:21:42Z</time>
      </trkpt>
      <trkpt lat="50.720626" lon="6.529979">
        <ele>233.260000</ele>
        <time>2009-08-23T09:21:59Z</time>
      </trkpt>
      <trkpt lat="50.720515" lon="6.530055">
        <ele>233.740000</ele>
        <time>2009-08-23T09:22:13Z</time>
      </trkpt>
      <trkpt lat="50.720486" lon="6.530079">
        <ele>233.260000</ele>
        <time>2009-08-23T09:22:15Z</time>
      </trkpt>
      <trkpt lat="50.720297" lon="6.530168">
        <ele>233.740000</ele>
        <time>2009-08-23T09:22:29Z</time>
      </trkpt>
      <trkpt lat="50.720123" lon="6.530296">
        <ele>233.740000</ele>
        <time>2009-08-23T09:22:42Z</time>
      </trkpt>
      <trkpt lat="50.719961" lon="6.530415">
        <ele>234.700000</ele>
        <time>2009-08-23T09:22:56Z</time>
      </trkpt>
      <trkpt lat="50.719820" lon="6.530524">
        <ele>233.740000</ele>
        <time>2009-08-23T09:23:10Z</time>
      </trkpt>
      <trkpt lat="50.719679" lon="6.530623">
        <ele>234.220000</ele>
        <time>2009-08-23T09:23:23Z</time>
      </trkpt>
      <trkpt lat="50.719517" lon="6.530767">
        <ele>234.220000</ele>
        <time>2009-08-23T09:23:37Z</time>
      </trkpt>
      <trkpt lat="50.719479" lon="6.530807">
        <ele>234.220000</ele>
        <time>2009-08-23T09:23:40Z</time>
      </trkpt>
      <trkpt lat="50.719282" lon="6.530918">
        <ele>234.700000</ele>
        <time>2009-08-23T09:23:55Z</time>
      </trkpt>
      <trkpt lat="50.719217" lon="6.530945">
        <ele>234.700000</ele>
        <time>2009-08-23T09:24:00Z</time>
      </trkpt>
      <trkpt lat="50.719008" lon="6.531024">
        <ele>234.700000</ele>
        <time>2009-08-23T09:24:15Z</time>
      </trkpt>
      <trkpt lat="50.718836" lon="6.531092">
        <ele>235.180000</ele>
        <time>2009-08-23T09:24:29Z</time>
      </trkpt>
      <trkpt lat="50.718732" lon="6.531134">
        <ele>235.180000</ele>
        <time>2009-08-23T09:24:41Z</time>
      </trkpt>
      <trkpt lat="50.718597" lon="6.531192">
        <ele>235.660000</ele>
        <time>2009-08-23T09:24:53Z</time>
      </trkpt>
      <trkpt lat="50.718430" lon="6.531272">
        <ele>235.180000</ele>
        <time>2009-08-23T09:25:07Z</time>
      </trkpt>
      <trkpt lat="50.718253" lon="6.531384">
        <ele>236.140000</ele>
        <time>2009-08-23T09:25:22Z</time>
      </trkpt>
      <trkpt lat="50.718105" lon="6.531420">
        <ele>235.660000</ele>
        <time>2009-08-23T09:25:37Z</time>
      </trkpt>
      <trkpt lat="50.717953" lon="6.531464">
        <ele>236.140000</ele>
        <time>2009-08-23T09:25:53Z</time>
      </trkpt>
      <trkpt lat="50.717935" lon="6.531469">
        <ele>235.180000</ele>
        <time>2009-08-23T09:26:09Z</time>
      </trkpt>
      <trkpt lat="50.717884" lon="6.531499">
        <ele>236.620000</ele>
        <time>2009-08-23T09:26:22Z</time>
      </trkpt>
      <trkpt lat="50.717786" lon="6.531539">
        <ele>235.660000</ele>
        <time>2009-08-23T09:26:34Z</time>
      </trkpt>
      <trkpt lat="50.717863" lon="6.531486">
        <ele>235.660000</ele>
        <time>2009-08-23T09:26:51Z</time>
      </trkpt>
      <trkpt lat="50.717814" lon="6.531519">
        <ele>235.660000</ele>
        <time>2009-08-23T09:27:11Z</time>
      </trkpt>
      <trkpt lat="50.717793" lon="6.531539">
        <ele>235.660000</ele>
        <time>2009-08-23T09:27:31Z</time>
      </trkpt>
      <trkpt lat="50.717616" lon="6.531494">
        <ele>235.180000</ele>
        <time>2009-08-23T09:27:57Z</time>
      </trkpt>
      <trkpt lat="50.717539" lon="6.531604">
        <ele>235.660000</ele>
        <time>2009-08-23T09:28:18Z</time>
      </trkpt>
      <trkpt lat="50.717541" lon="6.531623">
        <ele>234.700000</ele>
        <time>2009-08-23T09:28:39Z</time>
      </trkpt>
      <trkpt lat="50.717504" lon="6.531681">
        <ele>235.180000</ele>
        <time>2009-08-23T09:29:07Z</time>
      </trkpt>
      <trkpt lat="50.717373" lon="6.531784">
        <ele>236.140000</ele>
        <time>2009-08-23T09:29:23Z</time>
      </trkpt>
      <trkpt lat="50.717211" lon="6.531849">
        <ele>235.660000</ele>
        <time>2009-08-23T09:29:41Z</time>
      </trkpt>
      <trkpt lat="50.717088" lon="6.531871">
        <ele>236.140000</ele>
        <time>2009-08-23T09:30:06Z</time>
      </trkpt>
      <trkpt lat="50.716920" lon="6.531997">
        <ele>236.140000</ele>
        <time>2009-08-23T09:30:21Z</time>
      </trkpt>
      <trkpt lat="50.716827" lon="6.532032">
        <ele>236.620000</ele>
        <time>2009-08-23T09:30:28Z</time>
      </trkpt>
      <trkpt lat="50.716713" lon="6.532171">
        <ele>236.620000</ele>
        <time>2009-08-23T09:30:39Z</time>
      </trkpt>
      <trkpt lat="50.716646" lon="6.532296">
        <ele>236.620000</ele>
        <time>2009-08-23T09:30:49Z</time>
      </trkpt>
      <trkpt lat="50.716599" lon="6.532463">
        <ele>236.620000</ele>
        <time>2009-08-23T09:31:01Z</time>
      </trkpt>
      <trkpt lat="50.716468" lon="6.532690">
        <ele>236.620000</ele>
        <time>2009-08-23T09:31:15Z</time>
      </trkpt>
      <trkpt lat="50.716448" lon="6.532743">
        <ele>236.620000</ele>
        <time>2009-08-23T09:31:19Z</time>
      </trkpt>
      <trkpt lat="50.716338" lon="6.532881">
        <ele>237.100000</ele>
        <time>2009-08-23T09:31:29Z</time>
      </trkpt>
      <trkpt lat="50.716319" lon="6.532949">
        <ele>236.620000</ele>
        <time>2009-08-23T09:31:34Z</time>
      </trkpt>
      <trkpt lat="50.716310" lon="6.533022">
        <ele>236.620000</ele>
        <time>2009-08-23T09:31:38Z</time>
      </trkpt>
      <trkpt lat="50.716201" lon="6.533211">
        <ele>236.620000</ele>
        <time>2009-08-23T09:31:48Z</time>
      </trkpt>
      <trkpt lat="50.716128" lon="6.533324">
        <ele>237.100000</ele>
        <time>2009-08-23T09:31:56Z</time>
      </trkpt>
      <trkpt lat="50.716111" lon="6.533351">
        <ele>237.100000</ele>
        <time>2009-08-23T09:31:58Z</time>
      </trkpt>
      <trkpt lat="50.716092" lon="6.533489">
        <ele>236.620000</ele>
        <time>2009-08-23T09:32:07Z</time>
      </trkpt>
      <trkpt lat="50.716063" lon="6.533584">
        <ele>237.100000</ele>
        <time>2009-08-23T09:32:22Z</time>
      </trkpt>
      <trkpt lat="50.716065" lon="6.533623">
        <ele>236.620000</ele>
        <time>2009-08-23T09:32:28Z</time>
      </trkpt>
      <trkpt lat="50.716142" lon="6.533761">
        <ele>236.620000</ele>
        <time>2009-08-23T09:32:34Z</time>
      </trkpt>
      <trkpt lat="50.716329" lon="6.534013">
        <ele>236.140000</ele>
        <time>2009-08-23T09:32:49Z</time>
      </trkpt>
      <trkpt lat="50.716377" lon="6.534214">
        <ele>236.140000</ele>
        <time>2009-08-23T09:33:00Z</time>
      </trkpt>
      <trkpt lat="50.716411" lon="6.534300">
        <ele>236.140000</ele>
        <time>2009-08-23T09:33:04Z</time>
      </trkpt>
      <trkpt lat="50.716282" lon="6.534565">
        <ele>235.660000</ele>
        <time>2009-08-23T09:33:18Z</time>
      </trkpt>
      <trkpt lat="50.716187" lon="6.534688">
        <ele>235.180000</ele>
        <time>2009-08-23T09:33:27Z</time>
      </trkpt>
      <trkpt lat="50.716099" lon="6.534950">
        <ele>235.660000</ele>
        <time>2009-08-23T09:33:40Z</time>
      </trkpt>
      <trkpt lat="50.715936" lon="6.535192">
        <ele>235.660000</ele>
        <time>2009-08-23T09:33:56Z</time>
      </trkpt>
      <trkpt lat="50.715834" lon="6.535430">
        <ele>234.700000</ele>
        <time>2009-08-23T09:34:10Z</time>
      </trkpt>
      <trkpt lat="50.715817" lon="6.535492">
        <ele>234.700000</ele>
        <time>2009-08-23T09:34:13Z</time>
      </trkpt>
      <trkpt lat="50.715706" lon="6.535656">
        <ele>234.700000</ele>
        <time>2009-08-23T09:34:26Z</time>
      </trkpt>
      <trkpt lat="50.715555" lon="6.535760">
        <ele>234.220000</ele>
        <time>2009-08-23T09:34:40Z</time>
      </trkpt>
      <trkpt lat="50.715441" lon="6.535804">
        <ele>234.220000</ele>
        <time>2009-08-23T09:34:51Z</time>
      </trkpt>
      <trkpt lat="50.715373" lon="6.535842">
        <ele>234.220000</ele>
        <time>2009-08-23T09:34:56Z</time>
      </trkpt>
      <trkpt lat="50.715289" lon="6.535866">
        <ele>234.220000</ele>
        <time>2009-08-23T09:35:04Z</time>
      </trkpt>
      <trkpt lat="50.715089" lon="6.536008">
        <ele>233.740000</ele>
        <time>2009-08-23T09:35:20Z</time>
      </trkpt>
      <trkpt lat="50.714927" lon="6.536103">
        <ele>234.220000</ele>
        <time>2009-08-23T09:35:34Z</time>
      </trkpt>
      <trkpt lat="50.714847" lon="6.536204">
        <ele>235.180000</ele>
        <time>2009-08-23T09:35:44Z</time>
      </trkpt>
      <trkpt lat="50.714734" lon="6.536307">
        <ele>235.180000</ele>
        <time>2009-08-23T09:35:55Z</time>
      </trkpt>
      <trkpt lat="50.714589" lon="6.536441">
        <ele>235.660000</ele>
        <time>2009-08-23T09:36:08Z</time>
      </trkpt>
      <trkpt lat="50.714429" lon="6.536518">
        <ele>236.620000</ele>
        <time>2009-08-23T09:36:22Z</time>
      </trkpt>
      <trkpt lat="50.714227" lon="6.536598">
        <ele>235.660000</ele>
        <time>2009-08-23T09:36:35Z</time>
      </trkpt>
      <trkpt lat="50.714033" lon="6.536669">
        <ele>235.660000</ele>
        <time>2009-08-23T09:36:48Z</time>
      </trkpt>
      <trkpt lat="50.713859" lon="6.536817">
        <ele>236.620000</ele>
        <time>2009-08-23T09:37:02Z</time>
      </trkpt>
      <trkpt lat="50.713683" lon="6.536950">
        <ele>235.660000</ele>
        <time>2009-08-23T09:37:15Z</time>
      </trkpt>
      <trkpt lat="50.713555" lon="6.537104">
        <ele>235.660000</ele>
        <time>2009-08-23T09:37:29Z</time>
      </trkpt>
      <trkpt lat="50.713466" lon="6.537211">
        <ele>235.180000</ele>
        <time>2009-08-23T09:37:39Z</time>
      </trkpt>
      <trkpt lat="50.713267" lon="6.537351">
        <ele>236.620000</ele>
        <time>2009-08-23T09:37:54Z</time>
      </trkpt>
      <trkpt lat="50.713100" lon="6.537491">
        <ele>236.140000</ele>
        <time>2009-08-23T09:38:07Z</time>
      </trkpt>
      <trkpt lat="50.712926" lon="6.537622">
        <ele>236.620000</ele>
        <time>2009-08-23T09:38:22Z</time>
      </trkpt>
      <trkpt lat="50.712763" lon="6.537735">
        <ele>237.580000</ele>
        <time>2009-08-23T09:38:35Z</time>
      </trkpt>
      <trkpt lat="50.712638" lon="6.537841">
        <ele>238.060000</ele>
        <time>2009-08-23T09:38:47Z</time>
      </trkpt>
      <trkpt lat="50.712444" lon="6.537996">
        <ele>237.100000</ele>
        <time>2009-08-23T09:39:02Z</time>
      </trkpt>
      <trkpt lat="50.712390" lon="6.538035">
        <ele>237.100000</ele>
        <time>2009-08-23T09:39:07Z</time>
      </trkpt>
      <trkpt lat="50.712222" lon="6.538182">
        <ele>237.580000</ele>
        <time>2009-08-23T09:39:20Z</time>
      </trkpt>
      <trkpt lat="50.712081" lon="6.538309">
        <ele>238.060000</ele>
        <time>2009-08-23T09:39:33Z</time>
      </trkpt>
      <trkpt lat="50.711950" lon="6.538397">
        <ele>239.020000</ele>
        <time>2009-08-23T09:39:45Z</time>
      </trkpt>
      <trkpt lat="50.711899" lon="6.538419">
        <ele>239.510000</ele>
        <time>2009-08-23T09:39:48Z</time>
      </trkpt>
      <trkpt lat="50.711732" lon="6.538578">
        <ele>239.510000</ele>
        <time>2009-08-23T09:40:03Z</time>
      </trkpt>
      <trkpt lat="50.711568" lon="6.538686">
        <ele>239.990000</ele>
        <time>2009-08-23T09:40:16Z</time>
      </trkpt>
      <trkpt lat="50.711388" lon="6.538752">
        <ele>239.990000</ele>
        <time>2009-08-23T09:40:29Z</time>
      </trkpt>
      <trkpt lat="50.711225" lon="6.538883">
        <ele>240.950000</ele>
        <time>2009-08-23T09:40:44Z</time>
      </trkpt>
      <trkpt lat="50.711132" lon="6.538970">
        <ele>240.950000</ele>
        <time>2009-08-23T09:40:53Z</time>
      </trkpt>
      <trkpt lat="50.711095" lon="6.538995">
        <ele>241.430000</ele>
        <time>2009-08-23T09:40:56Z</time>
      </trkpt>
      <trkpt lat="50.711009" lon="6.539048">
        <ele>241.430000</ele>
        <time>2009-08-23T09:41:03Z</time>
      </trkpt>
      <trkpt lat="50.710815" lon="6.539171">
        <ele>241.910000</ele>
        <time>2009-08-23T09:41:17Z</time>
      </trkpt>
      <trkpt lat="50.710764" lon="6.539213">
        <ele>241.430000</ele>
        <time>2009-08-23T09:41:22Z</time>
      </trkpt>
      <trkpt lat="50.710705" lon="6.539246">
        <ele>241.910000</ele>
        <time>2009-08-23T09:41:27Z</time>
      </trkpt>
      <trkpt lat="50.710546" lon="6.539388">
        <ele>241.430000</ele>
        <time>2009-08-23T09:41:40Z</time>
      </trkpt>
      <trkpt lat="50.710394" lon="6.539488">
        <ele>241.910000</ele>
        <time>2009-08-23T09:41:52Z</time>
      </trkpt>
      <trkpt lat="50.710267" lon="6.539649">
        <ele>241.430000</ele>
        <time>2009-08-23T09:42:07Z</time>
      </trkpt>
      <trkpt lat="50.710254" lon="6.539691">
        <ele>241.910000</ele>
        <time>2009-08-23T09:42:09Z</time>
      </trkpt>
      <trkpt lat="50.710069" lon="6.539809">
        <ele>241.910000</ele>
        <time>2009-08-23T09:42:24Z</time>
      </trkpt>
      <trkpt lat="50.709912" lon="6.539939">
        <ele>241.430000</ele>
        <time>2009-08-23T09:42:37Z</time>
      </trkpt>
      <trkpt lat="50.709891" lon="6.539935">
        <ele>241.430000</ele>
        <time>2009-08-23T09:42:41Z</time>
      </trkpt>
      <trkpt lat="50.709809" lon="6.539927">
        <ele>241.430000</ele>
        <time>2009-08-23T09:42:47Z</time>
      </trkpt>
      <trkpt lat="50.709786" lon="6.539949">
        <ele>241.430000</ele>
        <time>2009-08-23T09:42:50Z</time>
      </trkpt>
      <trkpt lat="50.709741" lon="6.539936">
        <ele>241.430000</ele>
        <time>2009-08-23T09:43:09Z</time>
      </trkpt>
      <trkpt lat="50.709772" lon="6.539969">
        <ele>240.470000</ele>
        <time>2009-08-23T09:45:36Z</time>
      </trkpt>
      <trkpt lat="50.709798" lon="6.539994">
        <ele>240.470000</ele>
        <time>2009-08-23T09:45:43Z</time>
      </trkpt>
      <trkpt lat="50.709842" lon="6.540097">
        <ele>240.470000</ele>
        <time>2009-08-23T09:45:51Z</time>
      </trkpt>
      <trkpt lat="50.709887" lon="6.540194">
        <ele>239.990000</ele>
        <time>2009-08-23T09:45:59Z</time>
      </trkpt>
      <trkpt lat="50.709943" lon="6.540295">
        <ele>240.470000</ele>
        <time>2009-08-23T09:46:05Z</time>
      </trkpt>
      <trkpt lat="50.709972" lon="6.540376">
        <ele>239.990000</ele>
        <time>2009-08-23T09:46:09Z</time>
      </trkpt>
      <trkpt lat="50.709985" lon="6.540619">
        <ele>239.990000</ele>
        <time>2009-08-23T09:46:21Z</time>
      </trkpt>
      <trkpt lat="50.709969" lon="6.540776">
        <ele>239.510000</ele>
        <time>2009-08-23T09:46:31Z</time>
      </trkpt>
      <trkpt lat="50.709944" lon="6.540822">
        <ele>239.510000</ele>
        <time>2009-08-23T09:46:34Z</time>
      </trkpt>
      <trkpt lat="50.709932" lon="6.540918">
        <ele>239.510000</ele>
        <time>2009-08-23T09:46:39Z</time>
      </trkpt>
      <trkpt lat="50.709899" lon="6.541021">
        <ele>239.510000</ele>
        <time>2009-08-23T09:46:45Z</time>
      </trkpt>
      <trkpt lat="50.709897" lon="6.541101">
        <ele>239.510000</ele>
        <time>2009-08-23T09:46:49Z</time>
      </trkpt>
      <trkpt lat="50.709884" lon="6.541124">
        <ele>239.510000</ele>
        <time>2009-08-23T09:46:51Z</time>
      </trkpt>
      <trkpt lat="50.709883" lon="6.541185">
        <ele>239.020000</ele>
        <time>2009-08-23T09:46:54Z</time>
      </trkpt>
      <trkpt lat="50.709792" lon="6.541379">
        <ele>239.020000</ele>
        <time>2009-08-23T09:47:07Z</time>
      </trkpt>
      <trkpt lat="50.709733" lon="6.541462">
        <ele>239.020000</ele>
        <time>2009-08-23T09:47:12Z</time>
      </trkpt>
      <trkpt lat="50.709690" lon="6.541590">
        <ele>239.020000</ele>
        <time>2009-08-23T09:47:18Z</time>
      </trkpt>
      <trkpt lat="50.709758" lon="6.541778">
        <ele>239.020000</ele>
        <time>2009-08-23T09:47:27Z</time>
      </trkpt>
      <trkpt lat="50.709749" lon="6.541902">
        <ele>238.540000</ele>
        <time>2009-08-23T09:47:34Z</time>
      </trkpt>
      <trkpt lat="50.709754" lon="6.542019">
        <ele>238.540000</ele>
        <time>2009-08-23T09:47:40Z</time>
      </trkpt>
      <trkpt lat="50.709719" lon="6.542171">
        <ele>238.540000</ele>
        <time>2009-08-23T09:47:46Z</time>
      </trkpt>
      <trkpt lat="50.709716" lon="6.542221">
        <ele>238.540000</ele>
        <time>2009-08-23T09:47:49Z</time>
      </trkpt>
      <trkpt lat="50.709688" lon="6.542442">
        <ele>238.540000</ele>
        <time>2009-08-23T09:48:01Z</time>
      </trkpt>
      <trkpt lat="50.709767" lon="6.542693">
        <ele>237.580000</ele>
        <time>2009-08-23T09:48:14Z</time>
      </trkpt>
      <trkpt lat="50.709758" lon="6.542953">
        <ele>237.100000</ele>
        <time>2009-08-23T09:48:26Z</time>
      </trkpt>
      <trkpt lat="50.709760" lon="6.543005">
        <ele>237.100000</ele>
        <time>2009-08-23T09:48:29Z</time>
      </trkpt>
      <trkpt lat="50.709860" lon="6.543354">
        <ele>236.140000</ele>
        <time>2009-08-23T09:48:47Z</time>
      </trkpt>
      <trkpt lat="50.710063" lon="6.543746">
        <ele>235.180000</ele>
        <time>2009-08-23T09:49:08Z</time>
      </trkpt>
      <trkpt lat="50.710070" lon="6.543771">
        <ele>234.700000</ele>
        <time>2009-08-23T09:49:09Z</time>
      </trkpt>
      <trkpt lat="50.710095" lon="6.543851">
        <ele>234.700000</ele>
        <time>2009-08-23T09:49:13Z</time>
      </trkpt>
      <trkpt lat="50.710144" lon="6.543907">
        <ele>234.700000</ele>
        <time>2009-08-23T09:49:19Z</time>
      </trkpt>
      <trkpt lat="50.710162" lon="6.543918">
        <ele>234.220000</ele>
        <time>2009-08-23T09:49:21Z</time>
      </trkpt>
      <trkpt lat="50.710296" lon="6.544051">
        <ele>234.220000</ele>
        <time>2009-08-23T09:49:31Z</time>
      </trkpt>
      <trkpt lat="50.710440" lon="6.544192">
        <ele>234.220000</ele>
        <time>2009-08-23T09:49:43Z</time>
      </trkpt>
      <trkpt lat="50.710567" lon="6.544373">
        <ele>233.740000</ele>
        <time>2009-08-23T09:49:58Z</time>
      </trkpt>
      <trkpt lat="50.710643" lon="6.544518">
        <ele>233.740000</ele>
        <time>2009-08-23T09:50:10Z</time>
      </trkpt>
      <trkpt lat="50.710877" lon="6.544838">
        <ele>233.740000</ele>
        <time>2009-08-23T09:50:31Z</time>
      </trkpt>
      <trkpt lat="50.710966" lon="6.544905">
        <ele>233.740000</ele>
        <time>2009-08-23T09:50:44Z</time>
      </trkpt>
      <trkpt lat="50.711198" lon="6.545275">
        <ele>233.740000</ele>
        <time>2009-08-23T09:51:07Z</time>
      </trkpt>
      <trkpt lat="50.711261" lon="6.545757">
        <ele>234.220000</ele>
        <time>2009-08-23T09:51:28Z</time>
      </trkpt>
      <trkpt lat="50.711271" lon="6.545806">
        <ele>234.700000</ele>
        <time>2009-08-23T09:51:30Z</time>
      </trkpt>
      <trkpt lat="50.711333" lon="6.546066">
        <ele>234.700000</ele>
        <time>2009-08-23T09:51:42Z</time>
      </trkpt>
      <trkpt lat="50.711355" lon="6.546162">
        <ele>234.700000</ele>
        <time>2009-08-23T09:51:47Z</time>
      </trkpt>
      <trkpt lat="50.711368" lon="6.546197">
        <ele>234.220000</ele>
        <time>2009-08-23T09:51:49Z</time>
      </trkpt>
      <trkpt lat="50.711380" lon="6.546410">
        <ele>234.700000</ele>
        <time>2009-08-23T09:51:58Z</time>
      </trkpt>
      <trkpt lat="50.711422" lon="6.546530">
        <ele>234.220000</ele>
        <time>2009-08-23T09:52:05Z</time>
      </trkpt>
      <trkpt lat="50.711387" lon="6.546723">
        <ele>234.220000</ele>
        <time>2009-08-23T09:52:15Z</time>
      </trkpt>
      <trkpt lat="50.711411" lon="6.546839">
        <ele>234.700000</ele>
        <time>2009-08-23T09:52:20Z</time>
      </trkpt>
      <trkpt lat="50.711406" lon="6.546913">
        <ele>234.700000</ele>
        <time>2009-08-23T09:52:23Z</time>
      </trkpt>
      <trkpt lat="50.711410" lon="6.547003">
        <ele>234.220000</ele>
        <time>2009-08-23T09:52:27Z</time>
      </trkpt>
      <trkpt lat="50.711412" lon="6.547236">
        <ele>234.220000</ele>
        <time>2009-08-23T09:52:37Z</time>
      </trkpt>
      <trkpt lat="50.711381" lon="6.547314">
        <ele>234.220000</ele>
        <time>2009-08-23T09:52:42Z</time>
      </trkpt>
      <trkpt lat="50.711372" lon="6.547405">
        <ele>233.740000</ele>
        <time>2009-08-23T09:52:47Z</time>
      </trkpt>
      <trkpt lat="50.711353" lon="6.547648">
        <ele>233.260000</ele>
        <time>2009-08-23T09:52:59Z</time>
      </trkpt>
      <trkpt lat="50.711406" lon="6.547809">
        <ele>232.780000</ele>
        <time>2009-08-23T09:53:09Z</time>
      </trkpt>
      <trkpt lat="50.711408" lon="6.548099">
        <ele>232.300000</ele>
        <time>2009-08-23T09:53:25Z</time>
      </trkpt>
      <trkpt lat="50.711440" lon="6.548399">
        <ele>231.810000</ele>
        <time>2009-08-23T09:53:39Z</time>
      </trkpt>
      <trkpt lat="50.711445" lon="6.548509">
        <ele>231.810000</ele>
        <time>2009-08-23T09:53:44Z</time>
      </trkpt>
      <trkpt lat="50.711450" lon="6.548608">
        <ele>231.810000</ele>
        <time>2009-08-23T09:53:48Z</time>
      </trkpt>
      <trkpt lat="50.711435" lon="6.548717">
        <ele>231.330000</ele>
        <time>2009-08-23T09:53:54Z</time>
      </trkpt>
      <trkpt lat="50.711445" lon="6.548743">
        <ele>231.330000</ele>
        <time>2009-08-23T09:53:56Z</time>
      </trkpt>
      <trkpt lat="50.711414" lon="6.549067">
        <ele>231.330000</ele>
        <time>2009-08-23T09:54:12Z</time>
      </trkpt>
      <trkpt lat="50.711410" lon="6.549349">
        <ele>231.330000</ele>
        <time>2009-08-23T09:54:25Z</time>
      </trkpt>
      <trkpt lat="50.711405" lon="6.549614">
        <ele>230.850000</ele>
        <time>2009-08-23T09:54:39Z</time>
      </trkpt>
      <trkpt lat="50.711598" lon="6.549764">
        <ele>230.370000</ele>
        <time>2009-08-23T09:54:56Z</time>
      </trkpt>
      <trkpt lat="50.711626" lon="6.549833">
        <ele>229.890000</ele>
        <time>2009-08-23T09:55:01Z</time>
      </trkpt>
      <trkpt lat="50.711877" lon="6.550110">
        <ele>228.930000</ele>
        <time>2009-08-23T09:55:19Z</time>
      </trkpt>
      <trkpt lat="50.711948" lon="6.550203">
        <ele>227.970000</ele>
        <time>2009-08-23T09:55:27Z</time>
      </trkpt>
      <trkpt lat="50.712076" lon="6.550323">
        <ele>227.010000</ele>
        <time>2009-08-23T09:55:40Z</time>
      </trkpt>
      <trkpt lat="50.712280" lon="6.550676">
        <ele>227.010000</ele>
        <time>2009-08-23T09:56:01Z</time>
      </trkpt>
      <trkpt lat="50.712423" lon="6.551054">
        <ele>226.050000</ele>
        <time>2009-08-23T09:56:23Z</time>
      </trkpt>
      <trkpt lat="50.712629" lon="6.551375">
        <ele>225.570000</ele>
        <time>2009-08-23T09:56:43Z</time>
      </trkpt>
      <trkpt lat="50.712676" lon="6.551425">
        <ele>225.570000</ele>
        <time>2009-08-23T09:56:47Z</time>
      </trkpt>
      <trkpt lat="50.712884" lon="6.551646">
        <ele>224.610000</ele>
        <time>2009-08-23T09:57:08Z</time>
      </trkpt>
      <trkpt lat="50.713048" lon="6.551708">
        <ele>224.120000</ele>
        <time>2009-08-23T09:57:27Z</time>
      </trkpt>
      <trkpt lat="50.713104" lon="6.551691">
        <ele>224.120000</ele>
        <time>2009-08-23T09:57:30Z</time>
      </trkpt>
      <trkpt lat="50.713291" lon="6.551740">
        <ele>223.160000</ele>
        <time>2009-08-23T09:57:44Z</time>
      </trkpt>
      <trkpt lat="50.713384" lon="6.551716">
        <ele>223.160000</ele>
        <time>2009-08-23T09:57:50Z</time>
      </trkpt>
      <trkpt lat="50.713637" lon="6.551655">
        <ele>222.680000</ele>
        <time>2009-08-23T09:58:06Z</time>
      </trkpt>
      <trkpt lat="50.713683" lon="6.551642">
        <ele>222.680000</ele>
        <time>2009-08-23T09:58:09Z</time>
      </trkpt>
      <trkpt lat="50.713846" lon="6.551630">
        <ele>221.720000</ele>
        <time>2009-08-23T09:58:21Z</time>
      </trkpt>
      <trkpt lat="50.714049" lon="6.551553">
        <ele>221.240000</ele>
        <time>2009-08-23T09:58:38Z</time>
      </trkpt>
      <trkpt lat="50.714240" lon="6.551535">
        <ele>220.760000</ele>
        <time>2009-08-23T09:58:51Z</time>
      </trkpt>
      <trkpt lat="50.714491" lon="6.551536">
        <ele>219.800000</ele>
        <time>2009-08-23T09:59:08Z</time>
      </trkpt>
      <trkpt lat="50.714668" lon="6.551538">
        <ele>219.800000</ele>
        <time>2009-08-23T09:59:20Z</time>
      </trkpt>
      <trkpt lat="50.714785" lon="6.551523">
        <ele>219.320000</ele>
        <time>2009-08-23T09:59:33Z</time>
      </trkpt>
      <trkpt lat="50.714969" lon="6.551524">
        <ele>219.320000</ele>
        <time>2009-08-23T09:59:46Z</time>
      </trkpt>
      <trkpt lat="50.715243" lon="6.551542">
        <ele>218.840000</ele>
        <time>2009-08-23T10:00:05Z</time>
      </trkpt>
      <trkpt lat="50.715268" lon="6.551539">
        <ele>218.840000</ele>
        <time>2009-08-23T10:00:07Z</time>
      </trkpt>
      <trkpt lat="50.715445" lon="6.551541">
        <ele>218.360000</ele>
        <time>2009-08-23T10:00:21Z</time>
      </trkpt>
      <trkpt lat="50.715525" lon="6.551510">
        <ele>218.360000</ele>
        <time>2009-08-23T10:00:37Z</time>
      </trkpt>
      <trkpt lat="50.715539" lon="6.551762">
        <ele>218.360000</ele>
        <time>2009-08-23T10:01:08Z</time>
      </trkpt>
      <trkpt lat="50.715570" lon="6.552091">
        <ele>218.360000</ele>
        <time>2009-08-23T10:01:22Z</time>
      </trkpt>
      <trkpt lat="50.715562" lon="6.552168">
        <ele>218.360000</ele>
        <time>2009-08-23T10:01:27Z</time>
      </trkpt>
      <trkpt lat="50.715650" lon="6.552331">
        <ele>217.880000</ele>
        <time>2009-08-23T10:01:39Z</time>
      </trkpt>
      <trkpt lat="50.715788" lon="6.552638">
        <ele>217.880000</ele>
        <time>2009-08-23T10:01:56Z</time>
      </trkpt>
      <trkpt lat="50.715930" lon="6.552781">
        <ele>218.360000</ele>
        <time>2009-08-23T10:02:10Z</time>
      </trkpt>
      <trkpt lat="50.716056" lon="6.552932">
        <ele>217.880000</ele>
        <time>2009-08-23T10:02:24Z</time>
      </trkpt>
      <trkpt lat="50.716305" lon="6.553020">
        <ele>217.400000</ele>
        <time>2009-08-23T10:02:43Z</time>
      </trkpt>
      <trkpt lat="50.716595" lon="6.553057">
        <ele>216.910000</ele>
        <time>2009-08-23T10:03:05Z</time>
      </trkpt>
      <trkpt lat="50.716770" lon="6.552847">
        <ele>216.430000</ele>
        <time>2009-08-23T10:03:22Z</time>
      </trkpt>
      <trkpt lat="50.716796" lon="6.552814">
        <ele>216.430000</ele>
        <time>2009-08-23T10:03:25Z</time>
      </trkpt>
      <trkpt lat="50.716927" lon="6.552702">
        <ele>216.430000</ele>
        <time>2009-08-23T10:03:39Z</time>
      </trkpt>
      <trkpt lat="50.717150" lon="6.552600">
        <ele>215.950000</ele>
        <time>2009-08-23T10:03:52Z</time>
      </trkpt>
      <trkpt lat="50.717258" lon="6.552482">
        <ele>215.950000</ele>
        <time>2009-08-23T10:04:03Z</time>
      </trkpt>
      <trkpt lat="50.717295" lon="6.552212">
        <ele>215.470000</ele>
        <time>2009-08-23T10:04:15Z</time>
      </trkpt>
      <trkpt lat="50.717308" lon="6.552082">
        <ele>215.470000</ele>
        <time>2009-08-23T10:04:22Z</time>
      </trkpt>
      <trkpt lat="50.717305" lon="6.551974">
        <ele>215.470000</ele>
        <time>2009-08-23T10:04:28Z</time>
      </trkpt>
      <trkpt lat="50.717295" lon="6.551693">
        <ele>215.950000</ele>
        <time>2009-08-23T10:04:41Z</time>
      </trkpt>
      <trkpt lat="50.717302" lon="6.551525">
        <ele>215.950000</ele>
        <time>2009-08-23T10:04:49Z</time>
      </trkpt>
      <trkpt lat="50.717279" lon="6.551473">
        <ele>215.950000</ele>
        <time>2009-08-23T10:04:52Z</time>
      </trkpt>
      <trkpt lat="50.717244" lon="6.551280">
        <ele>215.950000</ele>
        <time>2009-08-23T10:05:01Z</time>
      </trkpt>
      <trkpt lat="50.717261" lon="6.551148">
        <ele>215.950000</ele>
        <time>2009-08-23T10:05:07Z</time>
      </trkpt>
      <trkpt lat="50.717302" lon="6.551109">
        <ele>215.950000</ele>
        <time>2009-08-23T10:05:11Z</time>
      </trkpt>
      <trkpt lat="50.717386" lon="6.551052">
        <ele>215.950000</ele>
        <time>2009-08-23T10:05:17Z</time>
      </trkpt>
      <trkpt lat="50.717586" lon="6.550967">
        <ele>214.990000</ele>
        <time>2009-08-23T10:05:35Z</time>
      </trkpt>
      <trkpt lat="50.717656" lon="6.550903">
        <ele>214.990000</ele>
        <time>2009-08-23T10:05:41Z</time>
      </trkpt>
      <trkpt lat="50.717708" lon="6.550860">
        <ele>214.510000</ele>
        <time>2009-08-23T10:05:45Z</time>
      </trkpt>
      <trkpt lat="50.717936" lon="6.550798">
        <ele>214.510000</ele>
        <time>2009-08-23T10:05:59Z</time>
      </trkpt>
      <trkpt lat="50.718121" lon="6.550721">
        <ele>214.030000</ele>
        <time>2009-08-23T10:06:11Z</time>
      </trkpt>
      <trkpt lat="50.718206" lon="6.550704">
        <ele>213.550000</ele>
        <time>2009-08-23T10:06:18Z</time>
      </trkpt>
      <trkpt lat="50.718340" lon="6.550650">
        <ele>213.550000</ele>
        <time>2009-08-23T10:06:31Z</time>
      </trkpt>
      <trkpt lat="50.718479" lon="6.550524">
        <ele>212.590000</ele>
        <time>2009-08-23T10:06:45Z</time>
      </trkpt>
      <trkpt lat="50.718541" lon="6.550400">
        <ele>212.590000</ele>
        <time>2009-08-23T10:06:52Z</time>
      </trkpt>
      <trkpt lat="50.718639" lon="6.550242">
        <ele>212.590000</ele>
        <time>2009-08-23T10:07:02Z</time>
      </trkpt>
      <trkpt lat="50.718834" lon="6.550102">
        <ele>212.110000</ele>
        <time>2009-08-23T10:07:18Z</time>
      </trkpt>
      <trkpt lat="50.719053" lon="6.550006">
        <ele>213.070000</ele>
        <time>2009-08-23T10:07:34Z</time>
      </trkpt>
      <trkpt lat="50.719240" lon="6.549796">
        <ele>214.030000</ele>
        <time>2009-08-23T10:07:53Z</time>
      </trkpt>
      <trkpt lat="50.719457" lon="6.549606">
        <ele>215.950000</ele>
        <time>2009-08-23T10:08:13Z</time>
      </trkpt>
      <trkpt lat="50.719655" lon="6.549447">
        <ele>216.430000</ele>
        <time>2009-08-23T10:08:28Z</time>
      </trkpt>
      <trkpt lat="50.719698" lon="6.549361">
        <ele>216.430000</ele>
        <time>2009-08-23T10:08:34Z</time>
      </trkpt>
      <trkpt lat="50.719770" lon="6.549069">
        <ele>217.400000</ele>
        <time>2009-08-23T10:08:47Z</time>
      </trkpt>
      <trkpt lat="50.719801" lon="6.548922">
        <ele>216.910000</ele>
        <time>2009-08-23T10:08:58Z</time>
      </trkpt>
      <trkpt lat="50.719962" lon="6.548799">
        <ele>217.400000</ele>
        <time>2009-08-23T10:09:13Z</time>
      </trkpt>
      <trkpt lat="50.720014" lon="6.548735">
        <ele>217.400000</ele>
        <time>2009-08-23T10:09:18Z</time>
      </trkpt>
      <trkpt lat="50.720198" lon="6.548586">
        <ele>217.400000</ele>
        <time>2009-08-23T10:09:33Z</time>
      </trkpt>
      <trkpt lat="50.720221" lon="6.548597">
        <ele>218.360000</ele>
        <time>2009-08-23T10:09:57Z</time>
      </trkpt>
      <trkpt lat="50.720326" lon="6.548574">
        <ele>217.400000</ele>
        <time>2009-08-23T10:11:26Z</time>
      </trkpt>
      <trkpt lat="50.720334" lon="6.548534">
        <ele>217.400000</ele>
        <time>2009-08-23T10:11:29Z</time>
      </trkpt>
      <trkpt lat="50.720486" lon="6.548405">
        <ele>216.910000</ele>
        <time>2009-08-23T10:11:44Z</time>
      </trkpt>
      <trkpt lat="50.720635" lon="6.548263">
        <ele>216.910000</ele>
        <time>2009-08-23T10:11:58Z</time>
      </trkpt>
      <trkpt lat="50.720799" lon="6.548164">
        <ele>216.430000</ele>
        <time>2009-08-23T10:12:12Z</time>
      </trkpt>
      <trkpt lat="50.721054" lon="6.547945">
        <ele>215.950000</ele>
        <time>2009-08-23T10:12:35Z</time>
      </trkpt>
      <trkpt lat="50.721306" lon="6.547775">
        <ele>216.430000</ele>
        <time>2009-08-23T10:12:52Z</time>
      </trkpt>
      <trkpt lat="50.721540" lon="6.547573">
        <ele>215.950000</ele>
        <time>2009-08-23T10:13:06Z</time>
      </trkpt>
      <trkpt lat="50.721559" lon="6.547557">
        <ele>215.950000</ele>
        <time>2009-08-23T10:13:07Z</time>
      </trkpt>
      <trkpt lat="50.721730" lon="6.547411">
        <ele>215.470000</ele>
        <time>2009-08-23T10:13:20Z</time>
      </trkpt>
      <trkpt lat="50.721947" lon="6.547203">
        <ele>214.510000</ele>
        <time>2009-08-23T10:13:39Z</time>
      </trkpt>
      <trkpt lat="50.722035" lon="6.547129">
        <ele>214.510000</ele>
        <time>2009-08-23T10:13:53Z</time>
      </trkpt>
      <trkpt lat="50.722362" lon="6.546753"/>
      <trkpt lat="50.722469" lon="6.547562"/>
      <trkpt lat="50.722631" lon="6.548328"/>
      <trkpt lat="50.722712" lon="6.548754"/>
      <trkpt lat="50.723197" lon="6.548414"/>
      <trkpt lat="50.723736" lon="6.547988"/>
      <trkpt lat="50.724598" lon="6.547222"/>
      <trkpt lat="50.725191" lon="6.546796"/>
      <trkpt lat="50.725676" lon="6.546370"/>
      <trkpt lat="50.726458" lon="6.545647"/>
      <trkpt lat="50.726889" lon="6.545434"/>
      <trkpt lat="50.727347" lon="6.545391"/>
      <trkpt lat="50.727751" lon="6.545391"/>
      <trkpt lat="50.727967" lon="6.545987"/>
      <trkpt lat="50.728102" lon="6.546285"/>
      <trkpt lat="50.728587" lon="6.545902"/>
      <trkpt lat="50.729288" lon="6.545476"/>
      <trkpt lat="50.729773" lon="6.544923"/>
      <trkpt lat="50.730635" lon="6.544284"/>
      <trkpt lat="50.731363" lon="6.543816"/>
      <trkpt lat="50.731983" lon="6.543390"/>
      <trkpt lat="50.732495" lon="6.542965"/>
      <trkpt lat="50.732791" lon="6.542709"/>
      <trkpt lat="50.733222" lon="6.542539"/>
      <trkpt lat="50.733788" lon="6.542156"/>
      <trkpt lat="50.734192" lon="6.541688"/>
      <trkpt lat="50.734381" lon="6.541517"/>
      <trkpt lat="50.734421" lon="6.541262"/>
      <trkpt lat="50.734799" lon="6.541560"/>
      <trkpt lat="50.735445" lon="6.541688"/>
      <trkpt lat="50.736146" lon="6.541517"/>
      <trkpt lat="50.736470" lon="6.541347"/>
      <trkpt lat="50.736470" lon="6.541304"/>
      <trkpt lat="50.736874" lon="6.540623"/>
      <trkpt lat="50.737170" lon="6.540027"/>
      <trkpt lat="50.737548" lon="6.539559"/>
      <trkpt lat="50.737817" lon="6.538963"/>
      <trkpt lat="50.737979" lon="6.538281"/>
      <trkpt lat="50.738221" lon="6.537557"/>
      <trkpt lat="50.738464" lon="6.537132"/>
      <trkpt lat="50.738464" lon="6.536876"/>
      <trkpt lat="50.738275" lon="6.536408"/>
      <trkpt lat="50.738356" lon="6.536067"/>
      <trkpt lat="50.738868" lon="6.535173"/>
      <trkpt lat="50.739057" lon="6.534662"/>
      <trkpt lat="50.739218" lon="6.534237"/>
      <trkpt lat="50.739515" lon="6.533640"/>
      <trkpt lat="50.739703" lon="6.533427"/>
      <trkpt lat="50.740054" lon="6.533427"/>
      <trkpt lat="50.740350" lon="6.532917"/>
      <trkpt lat="50.740377" lon="6.532917"/>
      <trkpt lat="50.740431" lon="6.532193"/>
      <trkpt lat="50.740404" lon="6.531256"/>
      <trkpt lat="50.740404" lon="6.531213"/>
      <trkpt lat="50.740404" lon="6.530319"/>
      <trkpt lat="50.740323" lon="6.529042"/>
      <trkpt lat="50.740162" lon="6.528233"/>
      <trkpt lat="50.740162" lon="6.528190"/>
      <trkpt lat="50.740162" lon="6.527509"/>
      <trkpt lat="50.740108" lon="6.526743"/>
      <trkpt lat="50.740108" lon="6.526700"/>
      <trkpt lat="50.740054" lon="6.525891"/>
      <trkpt lat="50.740054" lon="6.525849"/>
      <trkpt lat="50.739838" lon="6.525551"/>
      <trkpt lat="50.739542" lon="6.525082"/>
      <trkpt lat="50.739353" lon="6.524571"/>
      <trkpt lat="50.739353" lon="6.524529"/>
      <trkpt lat="50.739165" lon="6.523975"/>
      <trkpt lat="50.739165" lon="6.523933"/>
      <trkpt lat="50.738976" lon="6.523422"/>
      <trkpt lat="50.738976" lon="6.523379"/>
      <trkpt lat="50.738760" lon="6.522698"/>
      <trkpt lat="50.738491" lon="6.521889"/>
      <trkpt lat="50.738275" lon="6.521293"/>
      <trkpt lat="50.738248" lon="6.521293"/>
      <trkpt lat="50.737979" lon="6.520527"/>
      <trkpt lat="50.737736" lon="6.520058"/>
      <trkpt lat="50.737574" lon="6.519377"/>
      <trkpt lat="50.737521" lon="6.518781"/>
      <trkpt lat="50.737521" lon="6.518355"/>
      <trkpt lat="50.737521" lon="6.517929"/>
      <trkpt lat="50.737143" lon="6.517631"/>
      <trkpt lat="50.736739" lon="6.517461"/>
      <trkpt lat="50.736712" lon="6.517461"/>
      <trkpt lat="50.736254" lon="6.517802"/>
      <trkpt lat="50.735607" lon="6.518100"/>
      <trkpt lat="50.734907" lon="6.518525"/>
      <trkpt lat="50.734287" lon="6.518611"/>
      <trkpt lat="50.733586" lon="6.518951"/>
      <trkpt lat="50.733074" lon="6.519036"/>
      <trkpt lat="50.732481" lon="6.519164"/>
      <trkpt lat="50.732131" lon="6.519249"/>
      <trkpt lat="50.731726" lon="6.519547"/>
      <trkpt lat="50.731268" lon="6.519888"/>
      <trkpt lat="50.731160" lon="6.520399"/>
      <trkpt lat="50.731134" lon="6.520399"/>
      <trkpt lat="50.730999" lon="6.521080"/>
      <trkpt lat="50.731160" lon="6.521421"/>
      <trkpt lat="50.731376" lon="6.522187"/>
      <trkpt lat="50.731592" lon="6.522443"/>
      <trkpt lat="50.731646" lon="6.523081"/>
      <trkpt lat="50.731565" lon="6.523890"/>
      <trkpt lat="50.731565" lon="6.524529"/>
      <trkpt lat="50.731457" lon="6.525210"/>
    </trkseg>
  </trk>

</gpx>
